Time;durP1;ratioP1;P1;durP2;ratioP2;P2;SDS_P1;SDS_P2;PMS_P1;PMS_P2;Temp;Humidity;BMP_temperature;BMP_pressure;BME280_temperature;BME280_humidity;BME280_pressure;Samples;Min_cycle;Max_cycle;Signal;HPM_P1;HPM_P2
2022/03/25 00:00:20;;;;;;;8.13;2.10;;;21.90;99.90;;;;;;5028646;28;20190;-80
2022/03/25 00:02:51;;;;;;;4.80;1.75;;;21.90;99.90;;;;;;5021527;28;20966;-81
2022/03/25 00:05:21;;;;;;;6.93;1.65;;;22.00;99.90;;;;;;5012319;28;20191;-84
2022/03/25 00:07:52;;;;;;;6.25;1.60;;;22.20;99.90;;;;;;5018356;28;20191;-78
2022/03/25 00:10:23;;;;;;;7.32;2.10;;;22.30;99.90;;;;;;5015869;28;20619;-77
2022/03/25 00:12:54;;;;;;;5.50;1.90;;;22.40;99.90;;;;;;5014874;28;20197;-80
2022/03/25 00:15:26;;;;;;;6.65;1.73;;;22.50;99.90;;;;;;5022495;28;20203;-78
2022/03/25 00:17:57;;;;;;;8.13;1.70;;;22.40;99.90;;;;;;5015097;28;20943;-79
2022/03/25 00:20:27;;;;;;;9.80;1.70;;;22.30;99.90;;;;;;5015611;28;20556;-82
2022/03/25 00:22:58;;;;;;;4.68;1.63;;;22.20;99.90;;;;;;5014626;28;20199;-75
2022/03/25 00:25:29;;;;;;;7.45;1.70;;;22.20;99.90;;;;;;5017860;28;20199;-79
2022/03/25 00:27:59;;;;;;;8.15;1.80;;;22.10;99.90;;;;;;5021741;28;20253;-79
2022/03/25 00:30:32;;;;;;;6.47;1.63;;;22.00;99.90;;;;;;5024922;28;20595;-77
2022/03/25 00:33:04;;;;;;;7.90;1.60;;;21.90;99.90;;;;;;5015485;28;20627;-80
2022/03/25 00:35:35;;;;;;;8.13;1.63;;;21.90;99.90;;;;;;5015423;28;20211;-79
2022/03/25 00:38:06;;;;;;;7.13;1.63;;;21.90;99.90;;;;;;5016469;28;20187;-79
2022/03/25 00:40:38;;;;;;;7.90;1.70;;;21.90;99.90;;;;;;5015816;28;20184;-75
2022/03/25 00:43:09;;;;;;;6.10;1.88;;;21.90;99.90;;;;;;5018533;28;20247;-78
2022/03/25 00:45:42;;;;;;;6.30;1.60;;;21.90;99.90;;;;;;5013978;28;20191;-80
2022/03/25 00:48:13;;;;;;;9.40;1.70;;;21.90;99.90;;;;;;5017396;28;20230;-78
2022/03/25 00:50:43;;;;;;;7.28;2.03;;;21.90;99.90;;;;;;5014574;28;20187;-80
2022/03/25 00:53:14;;;;;;;6.70;2.15;;;21.90;99.90;;;;;;5013689;28;20191;-78
2022/03/25 00:55:44;;;;;;;7.30;1.75;;;21.90;99.90;;;;;;5014207;28;20606;-81
2022/03/25 00:58:15;;;;;;;6.45;1.85;;;22.00;99.90;;;;;;5017729;28;20188;-79
2022/03/25 01:00:48;;;;;;;7.95;1.80;;;22.00;99.90;;;;;;5015807;28;20630;-75
2022/03/25 01:03:19;;;;;;;5.13;1.63;;;22.10;99.90;;;;;;5013482;28;20195;-77
2022/03/25 01:05:49;;;;;;;6.82;2.20;;;22.10;99.90;;;;;;5018541;28;20194;-77
2022/03/25 01:08:20;;;;;;;8.07;2.00;;;22.10;99.90;;;;;;5016085;28;20622;-75
2022/03/25 01:10:51;;;;;;;6.75;1.95;;;22.10;99.90;;;;;;5019433;28;20194;-78
2022/03/25 01:13:22;;;;;;;5.35;1.65;;;22.10;99.90;;;;;;5017486;28;20738;-80
2022/03/25 01:15:54;;;;;;;4.05;1.70;;;22.10;99.90;;;;;;5015385;28;20219;-78
2022/03/25 01:18:25;;;;;;;5.20;1.90;;;22.20;99.90;;;;;;5013308;28;20654;-75
2022/03/25 01:20:55;;;;;;;6.32;2.08;;;22.30;99.90;;;;;;5011253;28;20191;-77
2022/03/25 01:23:26;;;;;;;5.38;1.55;;;22.30;99.90;;;;;;5012463;28;20709;-73
2022/03/25 01:25:57;;;;;;;4.05;1.80;;;22.30;99.90;;;;;;5013940;28;20203;-78
2022/03/25 01:28:32;;;;;;;7.13;1.67;;;22.40;99.90;;;;;;5014435;28;20187;-77
2022/03/25 01:31:06;;;;;;;3.97;1.45;;;22.40;99.90;;;;;;5013632;28;20647;-82
2022/03/25 01:33:37;;;;;;;5.60;1.63;;;22.40;99.90;;;;;;5012625;28;20187;-81
2022/03/25 01:36:09;;;;;;;9.75;2.05;;;22.50;99.90;;;;;;5014399;28;20243;-78
2022/03/25 01:38:40;;;;;;;8.00;1.55;;;22.50;99.90;;;;;;5018155;28;20270;-78
2022/03/25 01:41:10;;;;;;;3.70;1.30;;;22.50;99.90;;;;;;5016843;28;20194;-80
2022/03/25 01:43:44;;;;;;;6.53;1.42;;;22.50;99.90;;;;;;5016620;28;20217;-79
2022/03/25 01:46:17;;;;;;;8.65;1.60;;;22.50;99.90;;;;;;5013654;28;20192;-81
2022/03/25 01:48:48;;;;;;;6.15;1.58;;;22.50;99.90;;;;;;5010348;28;20222;-80
2022/03/25 01:51:19;;;;;;;5.65;1.67;;;22.50;99.90;;;;;;5013020;28;20187;-79
2022/03/25 01:53:50;;;;;;;5.70;1.70;;;22.50;99.90;;;;;;5016794;28;20201;-79
2022/03/25 01:56:25;;;;;;;9.02;1.70;;;22.50;99.90;;;;;;5009427;28;20214;-79
2022/03/25 01:58:55;;;;;;;9.52;1.70;;;22.50;99.90;;;;;;5014832;28;20191;-80
2022/03/25 02:01:29;;;;;;;5.75;1.50;;;22.50;99.90;;;;;;5011151;28;20190;-79
2022/03/25 02:03:59;;;;;;;5.47;1.50;;;22.60;99.90;;;;;;5012365;28;20196;-77
2022/03/25 02:06:30;;;;;;;13.02;2.67;;;22.70;99.90;;;;;;5013368;28;20194;-78
2022/03/25 02:09:01;;;;;;;11.68;2.67;;;22.90;99.90;;;;;;5015265;28;20195;-78
2022/03/25 02:11:32;;;;;;;6.15;1.77;;;23.10;99.90;;;;;;5012587;28;20191;-78
2022/03/25 02:14:02;;;;;;;5.00;1.80;;;23.10;99.90;;;;;;5014468;28;20253;-78
2022/03/25 02:16:42;;;;;;;3.35;1.45;;;23.00;99.90;;;;;;5010264;28;20223;-78
2022/03/25 02:19:16;;;;;;;5.47;1.70;;;22.90;99.90;;;;;;5011593;28;20274;-78
2022/03/25 02:21:49;;;;;;;5.60;1.63;;;22.70;99.90;;;;;;5011508;28;20241;-79
2022/03/25 02:24:21;;;;;;;6.05;1.63;;;22.50;99.90;;;;;;5013640;28;20192;-78
2022/03/25 02:26:52;;;;;;;6.40;1.60;;;22.40;99.90;;;;;;5014454;28;20190;-77
2022/03/25 02:29:23;;;;;;;9.82;2.10;;;22.20;99.90;;;;;;5014200;28;20191;-77
2022/03/25 02:31:54;;;;;;;5.50;1.67;;;22.10;99.90;;;;;;5013312;28;20252;-78
2022/03/25 02:34:24;;;;;;;9.57;2.17;;;22.10;99.90;;;;;;5015125;28;20190;-78
2022/03/25 02:36:57;;;;;;;8.98;1.77;;;22.10;99.90;;;;;;5015458;28;20273;-79
2022/03/25 02:39:28;;;;;;;4.20;1.60;;;22.00;99.90;;;;;;5017179;28;20186;-78
2022/03/25 02:41:58;;;;;;;8.95;2.03;;;22.10;99.90;;;;;;5025545;28;20669;-79
2022/03/25 02:44:29;;;;;;;7.03;1.80;;;22.20;99.90;;;;;;5012190;28;20797;-79
2022/03/25 02:47:00;;;;;;;7.35;1.58;;;22.30;99.90;;;;;;5018787;28;20276;-80
2022/03/25 02:49:30;;;;;;;7.03;1.63;;;22.40;99.90;;;;;;5010786;28;20187;-79
2022/03/25 02:52:03;;;;;;;6.53;1.50;;;22.40;99.90;;;;;;5015383;28;20677;-80
2022/03/25 02:54:33;;;;;;;7.57;1.60;;;22.50;99.90;;;;;;5012303;28;20191;-83
2022/03/25 02:57:05;;;;;;;6.15;1.70;;;22.60;99.90;;;;;;5018341;28;20693;-79
2022/03/25 02:59:36;;;;;;;8.75;1.70;;;22.70;99.90;;;;;;5015128;28;20183;-81
2022/03/25 03:02:07;;;;;;;4.90;1.50;;;22.70;99.90;;;;;;5011777;28;20191;-80
2022/03/25 03:04:38;;;;;;;7.45;1.63;;;22.60;99.90;;;;;;5022777;28;20190;-79
2022/03/25 03:07:10;;;;;;;5.22;1.25;;;22.60;99.90;;;;;;5014232;28;20186;-80
2022/03/25 03:09:41;;;;;;;4.88;1.60;;;22.50;99.90;;;;;;5010045;28;20680;-80
2022/03/25 03:12:13;;;;;;;6.95;1.77;;;22.60;99.90;;;;;;5008271;28;20281;-75
2022/03/25 03:14:43;;;;;;;6.45;1.60;;;22.60;99.90;;;;;;5022374;28;20186;-74
2022/03/25 03:17:15;;;;;;;9.02;1.60;;;22.60;99.90;;;;;;5013810;28;20207;-77
2022/03/25 03:19:45;;;;;;;7.25;1.73;;;22.60;99.90;;;;;;5020684;28;20186;-75
2022/03/25 03:22:18;;;;;;;6.20;1.42;;;22.60;99.90;;;;;;5029565;28;20233;-76
2022/03/25 03:24:48;;;;;;;5.75;1.63;;;22.60;99.90;;;;;;5031295;28;20194;-74
2022/03/25 03:27:19;;;;;;;6.05;1.95;;;22.60;99.90;;;;;;5029032;28;20197;-75
2022/03/25 03:29:50;;;;;;;6.05;1.50;;;22.60;99.90;;;;;;5030124;28;20709;-72
2022/03/25 03:32:21;;;;;;;8.90;1.63;;;22.60;99.90;;;;;;5020301;28;20187;-77
2022/03/25 03:34:51;;;;;;;6.20;1.48;;;22.60;99.90;;;;;;5018490;28;20191;-78
2022/03/25 03:37:24;;;;;;;10.45;1.80;;;22.60;99.90;;;;;;5026446;28;20264;-78
2022/03/25 03:39:55;;;;;;;6.80;1.73;;;22.70;99.90;;;;;;5021632;28;20198;-77
2022/03/25 03:42:26;;;;;;;5.50;1.88;;;22.80;99.90;;;;;;5018184;28;20241;-78
2022/03/25 03:44:57;;;;;;;6.75;1.85;;;22.90;99.90;;;;;;5021568;28;20211;-77
2022/03/25 03:47:27;;;;;;;11.38;2.28;;;23.00;99.90;;;;;;5027848;28;20693;-78
2022/03/25 03:49:58;;;;;;;7.22;1.83;;;23.10;99.90;;;;;;5020440;28;20210;-71
2022/03/25 03:52:30;;;;;;;4.35;1.42;;;23.00;99.90;;;;;;5018125;28;20242;-76
2022/03/25 03:55:01;;;;;;;6.35;1.80;;;23.00;99.90;;;;;;5033068;28;20191;-72
2022/03/25 03:57:34;;;;;;;5.55;1.65;;;22.90;99.90;;;;;;5008586;28;20215;-76
2022/03/25 04:00:06;;;;;;;5.95;1.45;;;22.70;99.90;;;;;;5014167;28;20266;-75
2022/03/25 04:02:37;;;;;;;5.63;1.48;;;22.60;99.90;;;;;;5015915;28;20539;-72
2022/03/25 04:05:08;;;;;;;8.45;1.70;;;22.40;99.90;;;;;;5020970;28;20676;-76
2022/03/25 04:07:45;;;;;;;5.85;1.60;;;22.30;99.90;;;;;;5013538;28;20249;-74
2022/03/25 04:10:16;;;;;;;5.95;1.40;;;22.20;99.90;;;;;;5013132;28;20716;-78
2022/03/25 04:12:47;;;;;;;7.22;1.70;;;22.30;99.90;;;;;;5017538;28;20235;-75
2022/03/25 04:15:18;;;;;;;7.00;1.63;;;22.30;99.90;;;;;;5015432;28;20630;-76
2022/03/25 04:17:48;;;;;;;4.13;1.70;;;22.30;99.90;;;;;;5023652;28;20211;-75
2022/03/25 04:20:19;;;;;;;7.57;1.80;;;22.30;99.90;;;;;;5022610;28;20195;-79
2022/03/25 04:22:52;;;;;;;6.82;1.52;;;22.30;99.90;;;;;;5016257;28;20615;-79
2022/03/25 04:25:22;;;;;;;8.20;2.10;;;22.40;99.90;;;;;;5016026;28;20187;-79
2022/03/25 04:27:56;;;;;;;5.97;1.92;;;22.50;99.90;;;;;;5014278;28;20202;-76
2022/03/25 04:30:28;;;;;;;6.15;2.10;;;22.50;99.90;;;;;;5020958;28;20188;-78
2022/03/25 04:32:59;;;;;;;6.50;1.98;;;22.60;99.90;;;;;;5014790;28;20191;-74
2022/03/25 04:35:30;;;;;;;6.18;1.95;;;22.60;99.90;;;;;;5014909;28;20597;-74
2022/03/25 04:38:03;;;;;;;7.50;2.15;;;22.60;99.90;;;;;;5008435;28;20656;-77
2022/03/25 04:40:35;;;;;;;4.55;1.90;;;22.70;99.90;;;;;;5015754;28;20187;-76
2022/03/25 04:43:06;;;;;;;7.15;1.60;;;22.70;99.90;;;;;;5008165;28;20211;-75
2022/03/25 04:45:37;;;;;;;5.95;1.92;;;22.70;99.90;;;;;;5013666;28;20194;-76
2022/03/25 04:48:10;;;;;;;4.90;2.10;;;22.70;99.90;;;;;;5015665;28;20226;-78
2022/03/25 04:50:41;;;;;;;5.05;1.60;;;22.60;99.90;;;;;;5014918;28;20195;-76
2022/03/25 04:53:14;;;;;;;3.33;1.50;;;22.50;99.90;;;;;;5019688;28;20547;-80
2022/03/25 04:55:45;;;;;;;5.07;1.38;;;22.40;99.90;;;;;;5021757;28;20642;-76
2022/03/25 04:58:16;;;;;;;5.43;1.50;;;22.30;99.90;;;;;;5019685;28;20618;-72
2022/03/25 05:00:46;;;;;;;3.85;1.30;;;22.30;99.90;;;;;;5014767;28;20191;-77
2022/03/25 05:03:17;;;;;;;6.47;1.35;;;22.20;99.90;;;;;;5014726;28;20214;-77
2022/03/25 05:05:48;;;;;;;3.33;1.30;;;22.20;99.90;;;;;;5015796;28;20195;-76
2022/03/25 05:08:21;;;;;;;5.38;1.45;;;22.30;99.90;;;;;;5013492;28;20191;-74
2022/03/25 05:10:51;;;;;;;5.32;1.40;;;22.30;99.90;;;;;;5019857;28;20245;-79
2022/03/25 05:13:22;;;;;;;4.60;1.70;;;22.20;99.90;;;;;;5020594;28;20237;-75
2022/03/25 05:15:52;;;;;;;3.25;1.48;;;22.10;99.90;;;;;;5015236;28;20198;-74
2022/03/25 05:18:24;;;;;;;4.25;1.40;;;22.10;99.90;;;;;;5023736;28;20273;-75
2022/03/25 05:20:54;;;;;;;6.40;1.75;;;21.90;99.90;;;;;;5033765;28;20186;-78
2022/03/25 05:23:27;;;;;;;6.03;1.77;;;21.80;99.90;;;;;;5025156;28;20199;-73
2022/03/25 05:25:57;;;;;;;4.72;1.77;;;21.60;99.90;;;;;;5022921;28;20237;-75
2022/03/25 05:28:29;;;;;;;5.53;1.83;;;21.40;99.90;;;;;;5021447;28;20195;-78
2022/03/25 05:30:59;;;;;;;6.85;1.80;;;21.20;99.90;;;;;;5016743;28;20191;-76
2022/03/25 05:33:30;;;;;;;7.13;2.30;;;21.10;99.90;;;;;;5014877;28;20195;-75
2022/03/25 05:36:00;;;;;;;9.18;2.20;;;21.00;99.90;;;;;;5008128;28;20195;-77
2022/03/25 05:38:33;;;;;;;6.85;2.22;;;20.60;99.90;;;;;;5014952;28;20645;-77
2022/03/25 05:41:04;;;;;;;8.73;2.58;;;20.40;99.90;;;;;;5009068;28;20192;-80
2022/03/25 05:43:35;;;;;;;6.32;2.28;;;20.40;99.90;;;;;;5024282;28;20215;-81
2022/03/25 05:46:05;;;;;;;6.53;2.30;;;20.20;99.90;;;;;;5009582;28;20190;-80
2022/03/25 05:48:36;;;;;;;8.85;2.28;;;20.10;99.90;;;;;;5033336;28;20709;-80
2022/03/25 05:51:10;;;;;;;7.88;2.28;;;20.10;99.90;;;;;;5023416;28;20187;-78
2022/03/25 05:53:43;;;;;;;7.65;2.08;;;20.00;99.90;;;;;;5014706;28;20191;-81
2022/03/25 05:56:14;;;;;;;6.22;2.30;;;19.90;99.90;;;;;;5020292;28;20187;-78
2022/03/25 05:58:44;;;;;;;6.47;2.30;;;19.80;99.90;;;;;;5018187;28;20215;-73
2022/03/25 06:01:15;;;;;;;10.45;2.47;;;19.80;99.90;;;;;;5023878;28;20194;-77
2022/03/25 06:03:46;;;;;;;5.63;2.22;;;19.80;99.90;;;;;;5021255;28;20595;-80
2022/03/25 06:06:16;;;;;;;6.63;2.30;;;19.70;99.90;;;;;;5015268;28;20693;-77
2022/03/25 06:08:49;;;;;;;5.70;1.90;;;19.70;99.90;;;;;;5022637;28;20246;-77
2022/03/25 06:11:19;;;;;;;7.50;2.30;;;19.70;99.90;;;;;;5014491;28;20685;-77
2022/03/25 06:13:50;;;;;;;7.05;2.13;;;19.70;99.90;;;;;;5012472;28;20725;-80
2022/03/25 06:16:21;;;;;;;6.22;2.50;;;19.80;99.90;;;;;;5006085;28;20191;-80
2022/03/25 06:18:52;;;;;;;6.88;2.55;;;19.70;99.90;;;;;;5011364;28;20215;-72
2022/03/25 06:21:23;;;;;;;4.07;1.83;;;19.70;99.90;;;;;;5019940;28;20277;-81
2022/03/25 06:23:55;;;;;;;6.72;1.83;;;19.70;99.90;;;;;;5013595;28;20241;-72
2022/03/25 06:26:26;;;;;;;6.20;2.15;;;19.70;99.90;;;;;;5022657;28;20265;-80
2022/03/25 06:28:57;;;;;;;5.60;2.03;;;19.60;99.90;;;;;;5008686;28;20202;-78
2022/03/25 06:31:27;;;;;;;5.20;2.08;;;19.70;99.90;;;;;;5020549;28;20269;-79
2022/03/25 06:33:58;;;;;;;4.22;2.28;;;19.70;99.90;;;;;;5014053;28;20206;-80
2022/03/25 06:36:29;;;;;;;4.20;2.20;;;19.70;99.90;;;;;;5017069;28;20563;-79
2022/03/25 06:39:01;;;;;;;4.97;1.88;;;19.70;99.90;;;;;;5013886;28;20222;-80
2022/03/25 06:41:32;;;;;;;5.57;2.03;;;19.70;99.90;;;;;;5015023;28;20187;-70
2022/03/25 06:44:03;;;;;;;5.68;2.00;;;19.80;99.90;;;;;;5017667;28;20228;-77
2022/03/25 06:46:34;;;;;;;5.90;2.22;;;19.90;99.90;;;;;;5015073;28;20187;-76
2022/03/25 06:49:05;;;;;;;6.93;2.42;;;19.90;99.90;;;;;;5020926;28;20238;-75
2022/03/25 06:51:36;;;;;;;5.78;2.70;;;19.90;99.90;;;;;;5016268;28;20186;-74
2022/03/25 06:54:09;;;;;;;6.05;2.47;;;20.00;99.90;;;;;;5014031;28;20260;-76
2022/03/25 06:56:40;;;;;;;6.20;2.70;;;20.00;99.90;;;;;;5014820;28;20183;-79
2022/03/25 06:59:11;;;;;;;6.22;2.28;;;20.10;99.90;;;;;;5013369;28;20232;-79
2022/03/25 07:01:43;;;;;;;6.93;2.58;;;20.10;99.90;;;;;;5008420;28;20191;-77
2022/03/25 07:04:14;;;;;;;7.15;2.50;;;20.10;99.90;;;;;;5005698;28;20672;-74
2022/03/25 07:06:50;;;;;;;7.38;2.50;;;20.10;99.90;;;;;;5008654;28;20249;-74
2022/03/25 07:09:23;;;;;;;6.93;2.53;;;20.10;99.90;;;;;;5017181;28;20557;-75
2022/03/25 07:11:53;;;;;;;6.60;2.30;;;20.10;99.90;;;;;;5022553;28;20191;-70
2022/03/25 07:14:24;;;;;;;4.97;2.55;;;20.10;99.90;;;;;;5019637;28;20187;-78
2022/03/25 07:16:55;;;;;;;6.90;2.72;;;20.10;99.90;;;;;;5015847;28;20665;-71
2022/03/25 07:19:26;;;;;;;5.35;2.30;;;20.10;99.90;;;;;;5019185;28;20426;-77
2022/03/25 07:21:56;;;;;;;7.40;2.55;;;20.10;99.90;;;;;;5013964;28;20737;-71
2022/03/25 07:24:29;;;;;;;5.63;2.55;;;20.10;99.90;;;;;;5011514;28;20184;-70
2022/03/25 07:26:59;;;;;;;5.45;2.92;;;20.10;99.90;;;;;;5020468;28;20187;-75
2022/03/25 07:29:30;;;;;;;8.20;2.97;;;20.10;99.90;;;;;;5012971;28;20240;-76
2022/03/25 07:32:01;;;;;;;6.80;2.80;;;20.10;99.90;;;;;;5012355;28;20279;-70
2022/03/25 07:34:34;;;;;;;7.78;3.00;;;20.10;99.90;;;;;;5013055;28;20194;-77
2022/03/25 07:37:04;;;;;;;6.75;3.00;;;20.10;99.90;;;;;;5013935;28;20213;-78
2022/03/25 07:39:37;;;;;;;6.93;3.05;;;20.20;99.90;;;;;;5018793;28;20240;-78
2022/03/25 07:42:08;;;;;;;10.57;3.72;;;20.10;99.90;;;;;;5025659;28;20205;-79
2022/03/25 07:44:39;;;;;;;8.90;3.58;;;20.10;99.90;;;;;;5018731;28;20191;-72
2022/03/25 07:47:11;;;;;;;7.05;3.35;;;20.10;99.90;;;;;;5007935;28;20199;-78
2022/03/25 07:49:41;;;;;;;8.90;3.50;;;20.10;99.90;;;;;;5022692;28;20194;-78
2022/03/25 07:52:13;;;;;;;7.00;3.38;;;20.10;99.90;;;;;;5026048;28;20191;-76
2022/03/25 07:54:46;;;;;;;10.30;3.42;;;20.10;99.90;;;;;;5013864;28;20188;-79
2022/03/25 07:57:16;;;;;;;7.78;3.30;;;20.10;99.90;;;;;;5024337;28;20195;-79
2022/03/25 07:59:47;;;;;;;8.02;3.50;;;20.10;99.90;;;;;;5010499;28;20564;-78
2022/03/25 08:02:17;;;;;;;9.32;3.63;;;20.00;99.90;;;;;;5011005;28;20253;-76
2022/03/25 08:04:48;;;;;;;10.30;4.25;;;19.90;99.90;;;;;;5018632;28;20275;-73
2022/03/25 08:07:19;;;;;;;11.52;6.13;;;19.90;99.90;;;;;;5014821;28;20195;-79
2022/03/25 08:09:52;;;;;;;8.88;3.70;;;19.90;99.90;;;;;;5018704;28;20195;-76
2022/03/25 08:12:22;;;;;;;9.05;3.10;;;19.70;99.90;;;;;;5012697;28;20234;-77
2022/03/25 08:14:53;;;;;;;11.88;3.70;;;19.70;99.90;;;;;;5022389;28;20266;-79
2022/03/25 08:17:24;;;;;;;5.03;2.65;;;19.80;99.90;;;;;;5019246;28;20199;-79
2022/03/25 08:19:54;;;;;;;6.90;3.00;;;19.80;99.90;;;;;;5016490;28;20195;-79
2022/03/25 08:22:25;;;;;;;7.03;3.30;;;19.80;99.90;;;;;;5015250;28;20190;-78
2022/03/25 08:27:58;;;;;;;5.38;3.00;;;19.60;99.90;;;;;;5013529;28;20238;-78
2022/03/25 08:30:29;;;;;;;6.65;3.10;;;19.60;99.90;;;;;;5019088;28;20535;-79
2022/03/25 08:33:00;;;;;;;5.15;3.00;;;19.60;99.90;;;;;;5014321;28;20245;-75
2022/03/25 08:35:31;;;;;;;7.75;2.80;;;19.60;99.90;;;;;;5016449;28;20248;-77
2022/03/25 08:38:01;;;;;;;5.38;2.60;;;19.60;99.90;;;;;;5013204;28;20613;-70
2022/03/25 08:40:35;;;;;;;5.78;2.85;;;19.60;99.90;;;;;;5013306;28;20187;-77
2022/03/25 08:43:06;;;;;;;5.53;2.35;;;19.60;99.90;;;;;;5012764;28;20229;-77
2022/03/25 08:45:37;;;;;;;7.50;2.35;;;19.60;99.90;;;;;;5014601;28;20668;-75
2022/03/25 08:48:08;;;;;;;6.35;2.33;;;19.60;99.90;;;;;;5013876;28;20234;-74
2022/03/25 08:50:38;;;;;;;6.68;2.38;;;19.60;99.90;;;;;;5016332;28;20241;-76
2022/03/25 08:53:09;;;;;;;5.30;2.28;;;19.70;99.90;;;;;;5015699;28;20187;-75
2022/03/25 08:55:42;;;;;;;5.07;2.58;;;19.60;99.90;;;;;;5012676;28;20257;-77
2022/03/25 08:58:12;;;;;;;7.07;2.50;;;19.60;99.90;;;;;;5015583;28;20222;-77
2022/03/25 09:00:43;;;;;;;5.53;2.03;;;19.50;99.90;;;;;;5014003;28;20245;-77
2022/03/25 09:03:14;;;;;;;4.97;2.58;;;19.50;99.90;;;;;;5014060;28;20238;-75
2022/03/25 09:05:45;;;;;;;4.55;2.50;;;19.50;99.90;;;;;;5020300;28;20182;-77
2022/03/25 09:08:15;;;;;;;4.85;2.47;;;19.50;99.90;;;;;;5014260;28;20191;-76
2022/03/25 09:10:48;;;;;;;6.03;2.97;;;19.50;99.90;;;;;;5012758;28;20250;-75
2022/03/25 09:13:19;;;;;;;6.28;2.72;;;19.50;99.90;;;;;;5010078;28;20654;-75
2022/03/25 09:15:50;;;;;;;7.22;2.83;;;19.50;99.90;;;;;;5014162;28;20186;-76
2022/03/25 09:18:20;;;;;;;5.82;2.75;;;19.50;99.90;;;;;;5012621;28;20567;-77
2022/03/25 09:20:51;;;;;;;7.80;3.22;;;19.50;99.90;;;;;;5013456;28;20274;-75
2022/03/25 09:23:22;;;;;;;7.10;2.88;;;19.50;99.90;;;;;;5017189;28;20249;-77
2022/03/25 09:25:54;;;;;;;9.50;2.60;;;19.50;99.90;;;;;;5012494;28;20191;-78
2022/03/25 09:28:25;;;;;;;6.03;2.60;;;19.50;99.90;;;;;;5013064;28;20250;-78
2022/03/25 09:30:56;;;;;;;7.30;2.30;;;19.60;99.90;;;;;;5013196;28;20195;-77
2022/03/25 09:33:26;;;;;;;4.55;2.22;;;19.70;99.90;;;;;;5015142;28;20229;-77
2022/03/25 09:35:57;;;;;;;5.03;2.20;;;19.70;99.90;;;;;;5014285;28;20712;-78
2022/03/25 09:38:28;;;;;;;5.57;2.30;;;19.80;99.90;;;;;;5016716;28;20207;-78
2022/03/25 09:41:03;;;;;;;5.38;2.20;;;19.70;99.90;;;;;;5012562;28;20203;-78
2022/03/25 09:43:34;;;;;;;4.07;2.17;;;19.70;99.90;;;;;;5012926;28;20269;-78
2022/03/25 09:46:05;;;;;;;6.95;2.58;;;19.80;99.90;;;;;;5015792;28;20183;-77
2022/03/25 09:48:36;;;;;;;7.55;2.50;;;19.80;99.90;;;;;;5015238;28;20227;-77
2022/03/25 09:51:07;;;;;;;5.90;2.40;;;19.80;99.90;;;;;;5013592;28;20811;-78
2022/03/25 09:53:38;;;;;;;7.07;2.55;;;19.80;99.90;;;;;;5015176;28;20187;-78
2022/03/25 09:56:11;;;;;;;7.97;2.40;;;19.80;99.90;;;;;;5013769;28;20191;-78
2022/03/25 09:58:41;;;;;;;9.45;2.45;;;19.80;99.90;;;;;;5012645;28;20218;-77
2022/03/25 10:01:12;;;;;;;4.93;2.35;;;19.90;99.90;;;;;;5011330;28;20638;-77
2022/03/25 10:03:43;;;;;;;6.38;1.90;;;19.90;99.90;;;;;;5011441;28;20608;-77
2022/03/25 10:06:15;;;;;;;7.07;2.10;;;19.90;99.90;;;;;;5012059;28;20198;-76
2022/03/25 10:08:46;;;;;;;5.57;2.33;;;19.90;99.90;;;;;;5013715;28;21616;-77
2022/03/25 10:11:26;;;;;;;5.85;2.25;;;19.90;99.90;;;;;;5013513;28;20257;-77
2022/03/25 10:14:18;;;;;;;8.40;2.13;;;19.90;99.90;;;;;;5013182;28;20194;-77
2022/03/25 10:16:49;;;;;;;4.88;2.20;;;19.80;99.90;;;;;;5012746;28;20187;-77
2022/03/25 10:19:21;;;;;;;3.75;1.70;;;19.90;99.90;;;;;;5012592;28;20211;-74
2022/03/25 10:21:56;;;;;;;8.20;2.15;;;19.90;99.90;;;;;;5010789;28;20245;-77
2022/03/25 10:24:41;;;;;;;6.47;2.20;;;19.90;99.90;;;;;;5014740;28;20190;-78
2022/03/25 10:27:14;;;;;;;6.03;2.13;;;19.80;99.90;;;;;;5012524;28;20183;-77
2022/03/25 10:29:48;;;;;;;6.18;2.15;;;19.80;99.90;;;;;;5011722;28;20191;-78
2022/03/25 10:32:23;;;;;;;4.72;2.20;;;19.80;99.90;;;;;;5015635;28;20297;-76
2022/03/25 10:35:06;;;;;;;4.25;1.85;;;19.80;99.90;;;;;;5012645;28;20195;-78
2022/03/25 10:37:38;;;;;;;5.68;2.10;;;19.70;99.90;;;;;;5012336;28;20191;-77
2022/03/25 10:40:10;;;;;;;5.20;2.08;;;19.70;99.90;;;;;;5012828;28;20733;-78
2022/03/25 10:43:06;;;;;;;4.65;1.88;;;19.70;99.90;;;;;;5013841;28;20218;-78
2022/03/25 10:45:40;;;;;;;5.97;1.98;;;19.70;99.90;;;;;;5017642;28;20716;-78
2022/03/25 10:48:19;;;;;;;9.32;2.35;;;19.70;99.90;;;;;;5011964;28;20308;-75
2022/03/25 10:51:05;;;;;;;6.38;2.25;;;19.70;99.90;;;;;;5012216;28;20259;-77
2022/03/25 10:53:36;;;;;;;6.55;2.28;;;19.70;99.90;;;;;;5013135;28;20725;-76
2022/03/25 10:56:10;;;;;;;9.75;2.30;;;19.70;99.90;;;;;;5016780;28;20187;-77
2022/03/25 10:58:52;;;;;;;6.63;2.15;;;19.70;99.90;;;;;;5012129;28;20265;-70
2022/03/25 11:01:23;;;;;;;6.55;2.25;;;19.70;99.90;;;;;;5008978;28;20186;-77
2022/03/25 11:03:54;;;;;;;6.65;2.30;;;19.70;99.90;;;;;;5011515;28;20187;-76
2022/03/25 11:06:25;;;;;;;12.48;2.80;;;19.60;99.90;;;;;;5012355;28;20187;-76
2022/03/25 11:08:56;;;;;;;8.30;2.45;;;19.60;99.90;;;;;;5011869;28;20190;-74
2022/03/25 11:11:27;;;;;;;5.63;2.13;;;19.60;99.90;;;;;;5014941;28;20187;-78
2022/03/25 11:13:59;;;;;;;5.45;2.30;;;19.60;99.90;;;;;;5012451;28;20198;-77
2022/03/25 11:16:30;;;;;;;5.65;2.28;;;19.60;99.90;;;;;;5008732;28;20195;-73
2022/03/25 11:19:01;;;;;;;7.00;2.33;;;19.60;99.90;;;;;;5010792;28;20686;-78
2022/03/25 11:21:32;;;;;;;7.85;2.38;;;19.60;99.90;;;;;;5011632;28;20191;-77
2022/03/25 11:24:06;;;;;;;4.57;1.83;;;19.60;99.90;;;;;;5008931;28;20194;-77
2022/03/25 11:26:43;;;;;;;5.70;2.25;;;19.60;99.90;;;;;;5021392;28;20234;-77
2022/03/25 11:29:18;;;;;;;8.93;2.55;;;19.60;99.90;;;;;;5027011;28;20198;-77
2022/03/25 11:32:11;;;;;;;7.38;2.35;;;19.60;99.90;;;;;;5020498;28;20198;-78
2022/03/25 11:34:45;;;;;;;7.78;2.38;;;19.60;99.90;;;;;;5016122;28;20187;-78
2022/03/25 11:37:22;;;;;;;8.07;2.13;;;19.50;99.90;;;;;;5022943;28;20269;-77
2022/03/25 11:40:06;;;;;;;9.40;2.03;;;19.50;99.90;;;;;;5012616;28;20221;-78
2022/03/25 11:42:41;;;;;;;6.05;2.00;;;19.60;99.90;;;;;;5022875;28;20202;-78
2022/03/25 11:45:37;;;;;;;8.15;2.30;;;19.50;99.90;;;;;;5029962;28;20194;-78
2022/03/25 11:48:35;;;;;;;6.82;2.08;;;19.50;99.90;;;;;;5023435;28;20343;-78
2022/03/25 11:51:36;;;;;;;7.35;2.22;;;19.50;99.90;;;;;;5015492;28;20218;-78
2022/03/25 11:54:35;;;;;;;6.47;2.20;;;19.50;99.90;;;;;;5021640;28;20294;-76
2022/03/25 11:57:06;;;;;;;4.85;2.00;;;19.50;99.90;;;;;;5023345;28;20602;-76
2022/03/25 11:59:54;;;;;;;5.70;2.00;;;19.50;99.90;;;;;;5013833;28;20626;-75
2022/03/25 12:02:38;;;;;;;7.25;1.77;;;19.50;99.90;;;;;;5024719;28;20195;-75
2022/03/25 12:05:23;;;;;;;6.80;1.48;;;19.50;99.90;;;;;;5020734;28;20642;-75
2022/03/25 12:08:31;;;;;;;3.88;1.23;;;19.60;99.90;;;;;;5021128;28;20205;-79
2022/03/25 12:11:03;;;;;;;7.00;1.15;;;19.70;99.90;;;;;;5011551;28;20253;-80
2022/03/25 12:14:10;;;;;;;5.22;1.30;;;19.60;99.90;;;;;;5028452;28;20598;-80
2022/03/25 12:17:04;;;;;;;3.33;1.00;;;19.60;99.90;;;;;;5020705;28;20670;-77
2022/03/25 12:20:03;;;;;;;5.35;1.00;;;19.50;99.90;;;;;;5017768;28;20215;-78
2022/03/25 12:22:42;;;;;;;3.05;1.00;;;19.50;99.90;;;;;;5015981;28;20183;-78
2022/03/25 12:25:20;;;;;;;2.38;1.10;;;19.40;99.90;;;;;;5022369;28;20190;-78
2022/03/25 12:27:54;;;;;;;4.00;1.10;;;19.30;99.90;;;;;;5009042;28;20635;-73
2022/03/25 12:30:25;;;;;;;2.35;0.90;;;19.30;99.90;;;;;;5019077;28;20201;-78
2022/03/25 12:33:07;;;;;;;4.75;1.25;;;19.30;99.90;;;;;;5018604;28;20587;-78
2022/03/25 12:35:40;;;;;;;4.80;1.38;;;19.20;99.90;;;;;;5005334;28;20191;-78
2022/03/25 12:38:31;;;;;;;4.53;1.50;;;19.20;99.90;;;;;;5019443;28;20191;-78
2022/03/25 12:41:02;;;;;;;5.30;1.60;;;19.20;99.90;;;;;;5006336;28;20203;-79
2022/03/25 12:43:33;;;;;;;4.00;1.42;;;19.20;99.90;;;;;;5030332;28;20194;-79
2022/03/25 12:46:12;;;;;;;5.72;1.70;;;19.20;99.90;;;;;;5015004;28;20183;-77
2022/03/25 12:48:43;;;;;;;4.28;1.67;;;19.20;99.90;;;;;;5029790;28;20681;-79
2022/03/25 12:51:20;;;;;;;5.65;1.77;;;19.20;99.90;;;;;;5019391;28;20187;-77
2022/03/25 12:53:50;;;;;;;5.60;1.70;;;19.20;99.90;;;;;;5022692;28;20198;-78
2022/03/25 12:56:21;;;;;;;6.82;1.80;;;19.20;99.90;;;;;;5015541;28;20199;-78
2022/03/25 12:58:53;;;;;;;5.50;1.60;;;19.20;99.90;;;;;;5014393;28;20184;-77
2022/03/25 13:01:24;;;;;;;5.72;1.80;;;19.20;99.90;;;;;;5020689;28;20714;-74
2022/03/25 13:03:56;;;;;;;7.03;1.65;;;19.20;99.90;;;;;;5020393;28;20194;-75
2022/03/25 13:06:29;;;;;;;5.80;1.80;;;19.20;99.90;;;;;;5015503;28;20194;-78
2022/03/25 13:09:06;;;;;;;5.68;1.60;;;19.20;99.90;;;;;;5021921;28;20205;-78
2022/03/25 13:11:37;;;;;;;6.43;1.77;;;19.20;99.90;;;;;;5022553;28;20542;-75
2022/03/25 13:14:16;;;;;;;6.03;1.50;;;19.20;99.90;;;;;;5021244;28;20266;-73
2022/03/25 13:16:49;;;;;;;10.13;1.90;;;19.20;99.90;;;;;;5020014;28;20187;-78